sensor_id;sensor_type;location;lat;lon;timestamp;temperature;humidity
14614;DHT22;7393;51.446;6.800;2023-04-03T00:01:25;2.50;1.00
14614;DHT22;7393;51.446;6.800;2023-04-03T00:03:51;2.50;1.00
14614;DHT22;7393;51.446;6.800;2023-04-03T00:06:19;2.40;1.00
14614;DHT22;7393;51.446;6.800;2023-04-03T00:08:45;2.40;17.10
14614;DHT22;7393;51.446;6.800;2023-04-03T00:11:13;2.40;83.50
14614;DHT22;7393;51.446;6.800;2023-04-03T00:13:41;2.40;91.40
14614;DHT22;7393;51.446;6.800;2023-04-03T00:16:09;2.40;91.10
14614;DHT22;7393;51.446;6.800;2023-04-03T00:18:36;2.30;68.10
14614;DHT22;7393;51.446;6.800;2023-04-03T00:21:04;2.30;99.90
14614;DHT22;7393;51.446;6.800;2023-04-03T00:23:30;2.40;99.90
14614;DHT22;7393;51.446;6.800;2023-04-03T00:25:57;2.30;99.90
14614;DHT22;7393;51.446;6.800;2023-04-03T00:28:25;2.30;99.90
14614;DHT22;7393;51.446;6.800;2023-04-03T00:30:53;2.30;1.00
14614;DHT22;7393;51.446;6.800;2023-04-03T00:33:20;2.30;1.00
14614;DHT22;7393;51.446;6.800;2023-04-03T00:35:47;2.30;1.00
14614;DHT22;7393;51.446;6.800;2023-04-03T00:38:15;2.30;99.90
14614;DHT22;7393;51.446;6.800;2023-04-03T00:40:43;2.30;99.90
14614;DHT22;7393;51.446;6.800;2023-04-03T00:43:13;2.30;99.90
14614;DHT22;7393;51.446;6.800;2023-04-03T00:45:43;2.30;1.00
14614;DHT22;7393;51.446;6.800;2023-04-03T00:48:14;2.30;1.00
14614;DHT22;7393;51.446;6.800;2023-04-03T00:50:42;2.20;1.00
14614;DHT22;7393;51.446;6.800;2023-04-03T00:53:12;2.20;1.00
14614;DHT22;7393;51.446;6.800;2023-04-03T00:55:40;2.20;1.00
14614;DHT22;7393;51.446;6.800;2023-04-03T00:58:08;2.10;1.00
14614;DHT22;7393;51.446;6.800;2023-04-03T01:00:37;2.10;1.00
14614;DHT22;7393;51.446;6.800;2023-04-03T01:03:06;2.00;1.00
14614;DHT22;7393;51.446;6.800;2023-04-03T01:05:33;2.00;1.00
14614;DHT22;7393;51.446;6.800;2023-04-03T01:08:00;2.00;1.00
14614;DHT22;7393;51.446;6.800;2023-04-03T01:10:27;1.90;1.00
14614;DHT22;7393;51.446;6.800;2023-04-03T01:12:54;1.90;1.00
14614;DHT22;7393;51.446;6.800;2023-04-03T01:15:23;1.90;1.00
14614;DHT22;7393;51.446;6.800;2023-04-03T01:17:52;1.90;1.00
14614;DHT22;7393;51.446;6.800;2023-04-03T01:23:49;1.80;97.20
14614;DHT22;7393;51.446;6.800;2023-04-03T01:26:19;1.80;99.90
14614;DHT22;7393;51.446;6.800;2023-04-03T01:28:46;1.80;99.90
14614;DHT22;7393;51.446;6.800;2023-04-03T01:31:20;1.80;99.90
14614;DHT22;7393;51.446;6.800;2023-04-03T01:33:50;1.70;99.90
14614;DHT22;7393;51.446;6.800;2023-04-03T01:36:19;1.70;99.90
14614;DHT22;7393;51.446;6.800;2023-04-03T01:38:46;1.70;99.90
14614;DHT22;7393;51.446;6.800;2023-04-03T01:41:13;1.70;1.00
14614;DHT22;7393;51.446;6.800;2023-04-03T01:43:41;1.70;1.00
14614;DHT22;7393;51.446;6.800;2023-04-03T01:46:07;1.70;1.00
14614;DHT22;7393;51.446;6.800;2023-04-03T01:48:34;1.60;1.00
14614;DHT22;7393;51.446;6.800;2023-04-03T01:51:03;1.60;1.00
14614;DHT22;7393;51.446;6.800;2023-04-03T01:53:29;1.60;1.00
14614;DHT22;7393;51.446;6.800;2023-04-03T01:55:56;1.60;1.00
14614;DHT22;7393;51.446;6.800;2023-04-03T01:58:23;1.60;99.90
14614;DHT22;7393;51.446;6.800;2023-04-03T02:00:50;1.60;1.00
14614;DHT22;7393;51.446;6.800;2023-04-03T02:03:17;1.50;1.00
14614;DHT22;7393;51.446;6.800;2023-04-03T02:05:44;1.50;1.00
14614;DHT22;7393;51.446;6.800;2023-04-03T02:08:12;1.50;1.00
14614;DHT22;7393;51.446;6.800;2023-04-03T02:10:39;1.50;1.00
14614;DHT22;7393;51.446;6.800;2023-04-03T02:13:06;1.50;1.00
14614;DHT22;7393;51.446;6.800;2023-04-03T02:15:33;1.50;99.90
14614;DHT22;7393;51.446;6.800;2023-04-03T02:18:00;1.50;99.90
14614;DHT22;7393;51.446;6.800;2023-04-03T02:20:26;1.50;1.00
14614;DHT22;7393;51.446;6.800;2023-04-03T02:22:53;1.50;99.90
14614;DHT22;7393;51.446;6.800;2023-04-03T02:25:21;1.50;1.00
14614;DHT22;7393;51.446;6.800;2023-04-03T02:27:48;1.50;1.00
14614;DHT22;7393;51.446;6.800;2023-04-03T02:30:15;1.50;1.00
14614;DHT22;7393;51.446;6.800;2023-04-03T02:32:43;1.50;1.00
14614;DHT22;7393;51.446;6.800;2023-04-03T02:35:11;1.50;99.90
14614;DHT22;7393;51.446;6.800;2023-04-03T02:37:38;1.50;99.90
14614;DHT22;7393;51.446;6.800;2023-04-03T02:40:08;1.50;99.90
14614;DHT22;7393;51.446;6.800;2023-04-03T02:42:36;1.60;99.90
14614;DHT22;7393;51.446;6.800;2023-04-03T02:45:03;1.50;99.90
14614;DHT22;7393;51.446;6.800;2023-04-03T02:47:30;1.50;99.90
14614;DHT22;7393;51.446;6.800;2023-04-03T02:49:57;1.50;99.90
14614;DHT22;7393;51.446;6.800;2023-04-03T02:52:24;1.50;99.90
14614;DHT22;7393;51.446;6.800;2023-04-03T02:54:50;1.50;99.90
14614;DHT22;7393;51.446;6.800;2023-04-03T02:57:17;1.50;1.00
14614;DHT22;7393;51.446;6.800;2023-04-03T02:59:46;1.50;99.90
14614;DHT22;7393;51.446;6.800;2023-04-03T03:02:13;1.50;99.90
14614;DHT22;7393;51.446;6.800;2023-04-03T03:04:39;1.50;99.90
14614;DHT22;7393;51.446;6.800;2023-04-03T03:07:06;1.50;1.00
14614;DHT22;7393;51.446;6.800;2023-04-03T03:09:33;1.50;1.00
14614;DHT22;7393;51.446;6.800;2023-04-03T03:12:00;1.40;1.00
14614;DHT22;7393;51.446;6.800;2023-04-03T03:14:26;1.40;1.00
14614;DHT22;7393;51.446;6.800;2023-04-03T03:16:55;1.40;1.00
14614;DHT22;7393;51.446;6.800;2023-04-03T03:19:21;1.40;93.40
14614;DHT22;7393;51.446;6.800;2023-04-03T03:21:48;1.40;31.70
14614;DHT22;7393;51.446;6.800;2023-04-03T03:24:15;1.40;97.50
14614;DHT22;7393;51.446;6.800;2023-04-03T03:26:42;1.40;34.40
14614;DHT22;7393;51.446;6.800;2023-04-03T03:29:09;1.40;24.30
14614;DHT22;7393;51.446;6.800;2023-04-03T03:31:36;1.40;99.90
14614;DHT22;7393;51.446;6.800;2023-04-03T03:34:04;1.40;1.00
14614;DHT22;7393;51.446;6.800;2023-04-03T03:36:31;1.50;99.90
14614;DHT22;7393;51.446;6.800;2023-04-03T03:38:58;1.50;99.90
14614;DHT22;7393;51.446;6.800;2023-04-03T03:41:24;1.60;53.50
14614;DHT22;7393;51.446;6.800;2023-04-03T03:43:51;1.60;99.90
14614;DHT22;7393;51.446;6.800;2023-04-03T03:46:18;1.70;99.90
14614;DHT22;7393;51.446;6.800;2023-04-03T03:48:45;1.80;1.00
14614;DHT22;7393;51.446;6.800;2023-04-03T03:51:13;1.80;99.90
14614;DHT22;7393;51.446;6.800;2023-04-03T03:53:40;1.80;1.00
14614;DHT22;7393;51.446;6.800;2023-04-03T03:56:07;1.80;1.00
14614;DHT22;7393;51.446;6.800;2023-04-03T03:58:34;1.80;99.90
14614;DHT22;7393;51.446;6.800;2023-04-03T04:01:01;1.90;99.90
14614;DHT22;7393;51.446;6.800;2023-04-03T04:03:28;1.90;1.00
14614;DHT22;7393;51.446;6.800;2023-04-03T04:05:55;1.90;1.00
14614;DHT22;7393;51.446;6.800;2023-04-03T04:08:24;1.90;1.00
14614;DHT22;7393;51.446;6.800;2023-04-03T04:10:51;1.90;99.90
14614;DHT22;7393;51.446;6.800;2023-04-03T04:13:18;1.90;99.90
14614;DHT22;7393;51.446;6.800;2023-04-03T04:15:44;1.90;1.00
14614;DHT22;7393;51.446;6.800;2023-04-03T04:18:11;1.90;99.90
14614;DHT22;7393;51.446;6.800;2023-04-03T04:20:38;1.90;99.90
14614;DHT22;7393;51.446;6.800;2023-04-03T04:23:05;1.90;1.00
14614;DHT22;7393;51.446;6.800;2023-04-03T04:25:33;1.90;1.00
14614;DHT22;7393;51.446;6.800;2023-04-03T04:28:00;1.90;1.00
14614;DHT22;7393;51.446;6.800;2023-04-03T04:30:26;1.90;1.00
14614;DHT22;7393;51.446;6.800;2023-04-03T04:32:54;1.90;1.00
14614;DHT22;7393;51.446;6.800;2023-04-03T04:35:20;1.90;1.00
14614;DHT22;7393;51.446;6.800;2023-04-03T04:37:47;2.00;99.90
14614;DHT22;7393;51.446;6.800;2023-04-03T04:40:14;2.00;1.00
14614;DHT22;7393;51.446;6.800;2023-04-03T04:42:42;1.90;99.90
14614;DHT22;7393;51.446;6.800;2023-04-03T04:45:10;1.90;99.90
14614;DHT22;7393;51.446;6.800;2023-04-03T04:47:37;1.90;3.40
14614;DHT22;7393;51.446;6.800;2023-04-03T04:50:04;1.90;1.00
14614;DHT22;7393;51.446;6.800;2023-04-03T04:52:31;1.90;1.00
14614;DHT22;7393;51.446;6.800;2023-04-03T04:54:58;1.90;1.00
14614;DHT22;7393;51.446;6.800;2023-04-03T04:57:25;1.90;1.00
14614;DHT22;7393;51.446;6.800;2023-04-03T04:59:53;1.90;1.00
14614;DHT22;7393;51.446;6.800;2023-04-03T05:02:20;1.90;1.00
14614;DHT22;7393;51.446;6.800;2023-04-03T05:04:47;1.90;1.00
14614;DHT22;7393;51.446;6.800;2023-04-03T05:07:15;1.90;1.00
14614;DHT22;7393;51.446;6.800;2023-04-03T05:09:42;1.90;1.00
14614;DHT22;7393;51.446;6.800;2023-04-03T05:12:09;1.90;9.10
14614;DHT22;7393;51.446;6.800;2023-04-03T05:14:35;1.90;1.00
14614;DHT22;7393;51.446;6.800;2023-04-03T05:17:04;1.90;1.00
14614;DHT22;7393;51.446;6.800;2023-04-03T05:19:30;2.00;1.00
14614;DHT22;7393;51.446;6.800;2023-04-03T05:21:57;2.00;1.00
14614;DHT22;7393;51.446;6.800;2023-04-03T05:24:24;2.00;1.00
14614;DHT22;7393;51.446;6.800;2023-04-03T05:26:51;2.00;1.00
14614;DHT22;7393;51.446;6.800;2023-04-03T05:29:18;2.00;99.90
14614;DHT22;7393;51.446;6.800;2023-04-03T05:31:45;2.00;1.00
14614;DHT22;7393;51.446;6.800;2023-04-03T05:34:13;2.00;1.00
14614;DHT22;7393;51.446;6.800;2023-04-03T05:36:40;2.00;1.00
14614;DHT22;7393;51.446;6.800;2023-04-03T05:39:07;2.00;1.00
14614;DHT22;7393;51.446;6.800;2023-04-03T05:41:34;2.00;1.00
14614;DHT22;7393;51.446;6.800;2023-04-03T05:44:00;2.00;99.90
14614;DHT22;7393;51.446;6.800;2023-04-03T05:46:27;2.10;99.90
14614;DHT22;7393;51.446;6.800;2023-04-03T05:48:54;2.10;99.90
14614;DHT22;7393;51.446;6.800;2023-04-03T05:51:25;2.10;99.90
14614;DHT22;7393;51.446;6.800;2023-04-03T05:54:00;2.10;99.70
14614;DHT22;7393;51.446;6.800;2023-04-03T05:56:27;2.10;99.90
14614;DHT22;7393;51.446;6.800;2023-04-03T05:58:54;2.10;99.90
14614;DHT22;7393;51.446;6.800;2023-04-03T06:01:21;2.10;99.90
14614;DHT22;7393;51.446;6.800;2023-04-03T06:03:49;2.20;1.00
14614;DHT22;7393;51.446;6.800;2023-04-03T06:06:15;2.20;1.00
14614;DHT22;7393;51.446;6.800;2023-04-03T06:08:44;2.20;1.00
14614;DHT22;7393;51.446;6.800;2023-04-03T06:11:11;2.20;4.70
14614;DHT22;7393;51.446;6.800;2023-04-03T06:13:38;2.20;1.00
14614;DHT22;7393;51.446;6.800;2023-04-03T06:16:06;2.20;1.00
14614;DHT22;7393;51.446;6.800;2023-04-03T06:18:32;2.30;1.00
14614;DHT22;7393;51.446;6.800;2023-04-03T06:20:59;2.30;1.00
14614;DHT22;7393;51.446;6.800;2023-04-03T06:23:26;2.40;99.90
14614;DHT22;7393;51.446;6.800;2023-04-03T06:25:54;2.40;99.90
14614;DHT22;7393;51.446;6.800;2023-04-03T06:28:21;2.40;1.00
14614;DHT22;7393;51.446;6.800;2023-04-03T06:30:47;2.40;99.90
14614;DHT22;7393;51.446;6.800;2023-04-03T06:33:14;2.40;99.90
14614;DHT22;7393;51.446;6.800;2023-04-03T06:35:41;2.40;99.90
14614;DHT22;7393;51.446;6.800;2023-04-03T06:38:08;2.50;99.90
14614;DHT22;7393;51.446;6.800;2023-04-03T06:40:35;2.50;99.90
14614;DHT22;7393;51.446;6.800;2023-04-03T06:43:03;2.50;99.90
14614;DHT22;7393;51.446;6.800;2023-04-03T06:45:30;2.60;99.90
14614;DHT22;7393;51.446;6.800;2023-04-03T06:47:57;2.60;1.00
14614;DHT22;7393;51.446;6.800;2023-04-03T06:50:24;2.70;1.00
14614;DHT22;7393;51.446;6.800;2023-04-03T06:52:51;2.70;1.00
14614;DHT22;7393;51.446;6.800;2023-04-03T06:55:18;2.80;1.00
14614;DHT22;7393;51.446;6.800;2023-04-03T06:57:45;2.80;99.90
14614;DHT22;7393;51.446;6.800;2023-04-03T07:00:14;2.90;99.90
14614;DHT22;7393;51.446;6.800;2023-04-03T07:02:41;3.00;99.90
14614;DHT22;7393;51.446;6.800;2023-04-03T07:05:08;3.10;99.90
14614;DHT22;7393;51.446;6.800;2023-04-03T07:07:35;3.10;99.90
14614;DHT22;7393;51.446;6.800;2023-04-03T07:10:04;3.10;16.10
14614;DHT22;7393;51.446;6.800;2023-04-03T07:12:31;3.20;16.30
14614;DHT22;7393;51.446;6.800;2023-04-03T07:14:58;3.30;1.00
14614;DHT22;7393;51.446;6.800;2023-04-03T07:17:26;3.30;1.00
14614;DHT22;7393;51.446;6.800;2023-04-03T07:19:53;3.40;1.00
14614;DHT22;7393;51.446;6.800;2023-04-03T07:22:20;3.50;1.00
14614;DHT22;7393;51.446;6.800;2023-04-03T07:24:47;3.50;1.00
14614;DHT22;7393;51.446;6.800;2023-04-03T07:27:13;3.50;1.00
14614;DHT22;7393;51.446;6.800;2023-04-03T07:29:40;3.50;1.00
14614;DHT22;7393;51.446;6.800;2023-04-03T07:32:08;3.60;1.00
14614;DHT22;7393;51.446;6.800;2023-04-03T07:34:37;3.70;1.00
14614;DHT22;7393;51.446;6.800;2023-04-03T07:37:03;3.70;1.00
14614;DHT22;7393;51.446;6.800;2023-04-03T07:39:30;3.80;1.00
14614;DHT22;7393;51.446;6.800;2023-04-03T07:41:57;3.80;1.00
14614;DHT22;7393;51.446;6.800;2023-04-03T07:44:24;3.80;1.00
14614;DHT22;7393;51.446;6.800;2023-04-03T07:46:51;3.80;1.00
14614;DHT22;7393;51.446;6.800;2023-04-03T07:49:18;3.90;1.00
14614;DHT22;7393;51.446;6.800;2023-04-03T07:51:46;3.90;99.90
14614;DHT22;7393;51.446;6.800;2023-04-03T07:54:13;3.90;99.90
14614;DHT22;7393;51.446;6.800;2023-04-03T07:56:41;3.90;99.90
14614;DHT22;7393;51.446;6.800;2023-04-03T07:59:08;4.00;99.90
14614;DHT22;7393;51.446;6.800;2023-04-03T08:01:35;4.00;99.90
14614;DHT22;7393;51.446;6.800;2023-04-03T08:04:02;4.00;99.90
14614;DHT22;7393;51.446;6.800;2023-04-03T08:06:31;4.10;99.90
14614;DHT22;7393;51.446;6.800;2023-04-03T08:09:02;4.10;99.90
14614;DHT22;7393;51.446;6.800;2023-04-03T08:11:29;4.20;99.90
14614;DHT22;7393;51.446;6.800;2023-04-03T08:13:57;4.30;99.90
14614;DHT22;7393;51.446;6.800;2023-04-03T08:16:24;4.30;99.90
14614;DHT22;7393;51.446;6.800;2023-04-03T08:18:53;4.40;99.90
14614;DHT22;7393;51.446;6.800;2023-04-03T08:21:20;4.50;99.90
14614;DHT22;7393;51.446;6.800;2023-04-03T08:23:48;4.60;99.90
14614;DHT22;7393;51.446;6.800;2023-04-03T08:26:18;4.70;99.90
14614;DHT22;7393;51.446;6.800;2023-04-03T08:28:46;4.90;99.90
14614;DHT22;7393;51.446;6.800;2023-04-03T08:31:15;5.00;99.90
14614;DHT22;7393;51.446;6.800;2023-04-03T08:33:44;5.10;99.90
14614;DHT22;7393;51.446;6.800;2023-04-03T08:36:17;5.20;99.90
14614;DHT22;7393;51.446;6.800;2023-04-03T08:38:44;5.30;99.90
14614;DHT22;7393;51.446;6.800;2023-04-03T08:41:14;5.50;57.10
14614;DHT22;7393;51.446;6.800;2023-04-03T08:43:54;5.60;40.80
14614;DHT22;7393;51.446;6.800;2023-04-03T08:46:26;5.70;44.70
14614;DHT22;7393;51.446;6.800;2023-04-03T08:48:59;5.80;27.90
14614;DHT22;7393;51.446;6.800;2023-04-03T08:51:26;5.90;21.50
14614;DHT22;7393;51.446;6.800;2023-04-03T08:53:57;6.00;8.90
14614;DHT22;7393;51.446;6.800;2023-04-03T08:56:26;6.10;11.00
14614;DHT22;7393;51.446;6.800;2023-04-03T08:58:57;6.20;1.30
14614;DHT22;7393;51.446;6.800;2023-04-03T09:01:27;6.40;1.00
14614;DHT22;7393;51.446;6.800;2023-04-03T09:03:56;6.50;1.00
14614;DHT22;7393;51.446;6.800;2023-04-03T09:06:25;6.60;1.00
14614;DHT22;7393;51.446;6.800;2023-04-03T09:09:07;6.60;1.00
14614;DHT22;7393;51.446;6.800;2023-04-03T09:11:44;6.70;1.00
14614;DHT22;7393;51.446;6.800;2023-04-03T09:14:20;6.70;1.00
14614;DHT22;7393;51.446;6.800;2023-04-03T09:16:53;6.80;1.00
14614;DHT22;7393;51.446;6.800;2023-04-03T09:19:25;6.90;1.00
14614;DHT22;7393;51.446;6.800;2023-04-03T09:21:58;7.00;1.00
14614;DHT22;7393;51.446;6.800;2023-04-03T09:24:27;7.10;1.00
14614;DHT22;7393;51.446;6.800;2023-04-03T09:26:57;7.20;1.00
14614;DHT22;7393;51.446;6.800;2023-04-03T09:29:27;7.30;1.00
14614;DHT22;7393;51.446;6.800;2023-04-03T09:31:57;7.40;1.00
14614;DHT22;7393;51.446;6.800;2023-04-03T09:34:27;7.50;1.00
14614;DHT22;7393;51.446;6.800;2023-04-03T09:36:56;7.50;1.00
14614;DHT22;7393;51.446;6.800;2023-04-03T09:39:25;7.60;1.00
14614;DHT22;7393;51.446;6.800;2023-04-03T09:41:58;7.70;1.00
14614;DHT22;7393;51.446;6.800;2023-04-03T09:44:29;7.70;1.00
14614;DHT22;7393;51.446;6.800;2023-04-03T09:46:57;7.80;1.00
14614;DHT22;7393;51.446;6.800;2023-04-03T09:49:24;8.00;1.00
14614;DHT22;7393;51.446;6.800;2023-04-03T09:51:51;8.00;1.00
14614;DHT22;7393;51.446;6.800;2023-04-03T09:54:33;8.10;1.00
14614;DHT22;7393;51.446;6.800;2023-04-03T09:57:08;8.20;1.00
14614;DHT22;7393;51.446;6.800;2023-04-03T09:59:39;8.30;1.00
14614;DHT22;7393;51.446;6.800;2023-04-03T10:02:29;8.30;1.00
14614;DHT22;7393;51.446;6.800;2023-04-03T10:04:58;8.40;1.00
14614;DHT22;7393;51.446;6.800;2023-04-03T10:07:28;8.40;1.00
14614;DHT22;7393;51.446;6.800;2023-04-03T10:09:56;8.60;1.00
14614;DHT22;7393;51.446;6.800;2023-04-03T10:12:23;8.60;1.00
14614;DHT22;7393;51.446;6.800;2023-04-03T10:14:56;8.70;1.00
14614;DHT22;7393;51.446;6.800;2023-04-03T10:17:29;8.80;1.00
14614;DHT22;7393;51.446;6.800;2023-04-03T10:20:03;8.90;1.00
14614;DHT22;7393;51.446;6.800;2023-04-03T10:22:39;9.00;1.00
14614;DHT22;7393;51.446;6.800;2023-04-03T10:25:16;9.10;1.00
14614;DHT22;7393;51.446;6.800;2023-04-03T10:27:51;9.30;1.00
14614;DHT22;7393;51.446;6.800;2023-04-03T10:30:28;9.40;1.00
14614;DHT22;7393;51.446;6.800;2023-04-03T10:33:05;9.50;1.00
14614;DHT22;7393;51.446;6.800;2023-04-03T10:35:42;9.60;1.00
14614;DHT22;7393;51.446;6.800;2023-04-03T10:38:15;9.60;1.00
14614;DHT22;7393;51.446;6.800;2023-04-03T10:40:48;9.60;1.00
14614;DHT22;7393;51.446;6.800;2023-04-03T10:43:21;9.60;1.00
14614;DHT22;7393;51.446;6.800;2023-04-03T10:45:57;9.70;1.00
14614;DHT22;7393;51.446;6.800;2023-04-03T10:48:36;9.80;1.00
14614;DHT22;7393;51.446;6.800;2023-04-03T10:51:13;9.70;1.00
14614;DHT22;7393;51.446;6.800;2023-04-03T10:53:45;9.80;1.00
14614;DHT22;7393;51.446;6.800;2023-04-03T10:56:17;9.90;1.00
14614;DHT22;7393;51.446;6.800;2023-04-03T10:58:50;10.10;1.00
14614;DHT22;7393;51.446;6.800;2023-04-03T11:01:23;10.20;1.00
14614;DHT22;7393;51.446;6.800;2023-04-03T11:03:53;10.30;1.00
14614;DHT22;7393;51.446;6.800;2023-04-03T11:06:24;10.40;1.00
14614;DHT22;7393;51.446;6.800;2023-04-03T11:08:55;10.30;1.00
14614;DHT22;7393;51.446;6.800;2023-04-03T11:11:26;10.30;1.00
14614;DHT22;7393;51.446;6.800;2023-04-03T11:14:00;10.30;1.00
14614;DHT22;7393;51.446;6.800;2023-04-03T11:16:30;10.40;1.00
14614;DHT22;7393;51.446;6.800;2023-04-03T11:19:01;10.50;1.00
14614;DHT22;7393;51.446;6.800;2023-04-03T11:21:33;10.70;1.00
14614;DHT22;7393;51.446;6.800;2023-04-03T11:24:03;10.80;1.00
14614;DHT22;7393;51.446;6.800;2023-04-03T11:26:39;11.00;1.00
14614;DHT22;7393;51.446;6.800;2023-04-03T11:29:09;11.10;1.00
14614;DHT22;7393;51.446;6.800;2023-04-03T11:31:49;11.10;1.00
14614;DHT22;7393;51.446;6.800;2023-04-03T11:34:30;11.20;1.00
14614;DHT22;7393;51.446;6.800;2023-04-03T11:37:05;11.20;1.00
14614;DHT22;7393;51.446;6.800;2023-04-03T11:39:34;11.20;1.00
14614;DHT22;7393;51.446;6.800;2023-04-03T11:42:15;11.30;1.00
14614;DHT22;7393;51.446;6.800;2023-04-03T11:44:43;11.20;1.00
14614;DHT22;7393;51.446;6.800;2023-04-03T11:47:12;11.30;1.00
14614;DHT22;7393;51.446;6.800;2023-04-03T11:50:00;11.40;1.00
14614;DHT22;7393;51.446;6.800;2023-04-03T11:52:56;11.50;1.00
14614;DHT22;7393;51.446;6.800;2023-04-03T11:55:46;11.50;1.00
14614;DHT22;7393;51.446;6.800;2023-04-03T11:58:18;11.60;1.00
14614;DHT22;7393;51.446;6.800;2023-04-03T12:01:03;11.60;1.00
14614;DHT22;7393;51.446;6.800;2023-04-03T12:04:04;11.70;1.00
14614;DHT22;7393;51.446;6.800;2023-04-03T12:10:14;12.10;1.00
14614;DHT22;7393;51.446;6.800;2023-04-03T12:12:43;12.20;1.00
14614;DHT22;7393;51.446;6.800;2023-04-03T12:15:44;12.30;1.00
14614;DHT22;7393;51.446;6.800;2023-04-03T12:18:41;12.30;1.00
14614;DHT22;7393;51.446;6.800;2023-04-03T12:21:10;12.40;1.00
14614;DHT22;7393;51.446;6.800;2023-04-03T12:23:58;12.40;1.00
14614;DHT22;7393;51.446;6.800;2023-04-03T12:26:27;12.40;1.00
14614;DHT22;7393;51.446;6.800;2023-04-03T12:28:55;12.30;1.00
14614;DHT22;7393;51.446;6.800;2023-04-03T12:31:25;12.40;1.00
14614;DHT22;7393;51.446;6.800;2023-04-03T12:34:09;12.40;1.00
14614;DHT22;7393;51.446;6.800;2023-04-03T12:36:46;12.40;1.00
14614;DHT22;7393;51.446;6.800;2023-04-03T12:39:33;12.50;1.00
14614;DHT22;7393;51.446;6.800;2023-04-03T12:42:17;12.60;1.00
14614;DHT22;7393;51.446;6.800;2023-04-03T12:44:56;12.70;1.00
14614;DHT22;7393;51.446;6.800;2023-04-03T12:47:28;12.90;1.00
14614;DHT22;7393;51.446;6.800;2023-04-03T12:49:59;13.00;1.00
14614;DHT22;7393;51.446;6.800;2023-04-03T12:52:37;13.10;1.00
14614;DHT22;7393;51.446;6.800;2023-04-03T12:55:18;13.20;1.00
14614;DHT22;7393;51.446;6.800;2023-04-03T12:57:46;13.20;1.00
14614;DHT22;7393;51.446;6.800;2023-04-03T13:00:29;13.10;1.00
14614;DHT22;7393;51.446;6.800;2023-04-03T13:02:56;13.20;1.00
14614;DHT22;7393;51.446;6.800;2023-04-03T13:05:23;13.10;1.00
14614;DHT22;7393;51.446;6.800;2023-04-03T13:07:55;13.10;1.00
14614;DHT22;7393;51.446;6.800;2023-04-03T13:10:23;13.00;1.00
14614;DHT22;7393;51.446;6.800;2023-04-03T13:12:53;12.90;1.00
14614;DHT22;7393;51.446;6.800;2023-04-03T13:15:23;13.00;1.00
14614;DHT22;7393;51.446;6.800;2023-04-03T13:17:50;13.00;1.00
14614;DHT22;7393;51.446;6.800;2023-04-03T13:20:21;13.10;1.00
14614;DHT22;7393;51.446;6.800;2023-04-03T13:22:55;13.10;1.00
14614;DHT22;7393;51.446;6.800;2023-04-03T13:25:29;13.20;1.00
14614;DHT22;7393;51.446;6.800;2023-04-03T13:27:58;13.30;1.00
14614;DHT22;7393;51.446;6.800;2023-04-03T13:30:28;13.40;1.00
14614;DHT22;7393;51.446;6.800;2023-04-03T13:32:56;13.40;1.00
14614;DHT22;7393;51.446;6.800;2023-04-03T13:35:30;13.30;1.00
14614;DHT22;7393;51.446;6.800;2023-04-03T13:38:01;13.30;1.00
14614;DHT22;7393;51.446;6.800;2023-04-03T13:40:28;13.30;1.00
14614;DHT22;7393;51.446;6.800;2023-04-03T13:43:03;13.40;1.00
14614;DHT22;7393;51.446;6.800;2023-04-03T13:45:32;13.30;1.00
14614;DHT22;7393;51.446;6.800;2023-04-03T13:48:16;13.20;1.00
14614;DHT22;7393;51.446;6.800;2023-04-03T13:50:53;13.20;1.00
14614;DHT22;7393;51.446;6.800;2023-04-03T13:53:22;13.20;1.00
14614;DHT22;7393;51.446;6.800;2023-04-03T13:55:56;13.30;1.00
14614;DHT22;7393;51.446;6.800;2023-04-03T13:58:25;13.30;1.00
14614;DHT22;7393;51.446;6.800;2023-04-03T14:00:54;13.30;1.00
14614;DHT22;7393;51.446;6.800;2023-04-03T14:03:23;13.20;1.00
14614;DHT22;7393;51.446;6.800;2023-04-03T14:05:51;13.10;1.00
14614;DHT22;7393;51.446;6.800;2023-04-03T14:08:18;13.00;1.00
14614;DHT22;7393;51.446;6.800;2023-04-03T14:10:47;12.90;1.00
14614;DHT22;7393;51.446;6.800;2023-04-03T14:13:16;13.00;1.00
14614;DHT22;7393;51.446;6.800;2023-04-03T14:15:44;12.90;1.00
14614;DHT22;7393;51.446;6.800;2023-04-03T14:18:12;13.00;1.00
14614;DHT22;7393;51.446;6.800;2023-04-03T14:20:39;12.90;1.00
14614;DHT22;7393;51.446;6.800;2023-04-03T14:23:06;12.90;1.00
14614;DHT22;7393;51.446;6.800;2023-04-03T14:25:33;12.90;1.00
14614;DHT22;7393;51.446;6.800;2023-04-03T14:28:07;12.80;1.00
14614;DHT22;7393;51.446;6.800;2023-04-03T14:30:39;12.90;1.00
14614;DHT22;7393;51.446;6.800;2023-04-03T14:33:06;12.90;1.00
14614;DHT22;7393;51.446;6.800;2023-04-03T14:35:32;13.00;1.00
14614;DHT22;7393;51.446;6.800;2023-04-03T14:37:59;13.10;1.00
14614;DHT22;7393;51.446;6.800;2023-04-03T14:40:27;13.10;1.00
14614;DHT22;7393;51.446;6.800;2023-04-03T14:42:54;13.00;1.00
14614;DHT22;7393;51.446;6.800;2023-04-03T14:45:24;13.00;1.00
14614;DHT22;7393;51.446;6.800;2023-04-03T14:47:54;13.00;1.00
14614;DHT22;7393;51.446;6.800;2023-04-03T14:50:24;12.90;1.00
14614;DHT22;7393;51.446;6.800;2023-04-03T14:52:53;13.00;1.00
14614;DHT22;7393;51.446;6.800;2023-04-03T14:55:22;12.90;1.00
14614;DHT22;7393;51.446;6.800;2023-04-03T14:57:49;12.80;1.00
14614;DHT22;7393;51.446;6.800;2023-04-03T15:00:17;12.80;1.00
14614;DHT22;7393;51.446;6.800;2023-04-03T15:02:47;12.70;1.00
14614;DHT22;7393;51.446;6.800;2023-04-03T15:05:14;12.70;1.00
14614;DHT22;7393;51.446;6.800;2023-04-03T15:07:45;12.70;1.00
14614;DHT22;7393;51.446;6.800;2023-04-03T15:10:18;12.70;1.00
14614;DHT22;7393;51.446;6.800;2023-04-03T15:12:46;12.60;1.00
14614;DHT22;7393;51.446;6.800;2023-04-03T15:15:14;12.50;1.00
14614;DHT22;7393;51.446;6.800;2023-04-03T15:17:41;12.40;1.00
14614;DHT22;7393;51.446;6.800;2023-04-03T15:20:14;12.30;1.00
14614;DHT22;7393;51.446;6.800;2023-04-03T15:22:41;12.30;1.00
14614;DHT22;7393;51.446;6.800;2023-04-03T15:25:09;12.20;1.00
14614;DHT22;7393;51.446;6.800;2023-04-03T15:27:36;12.10;1.00
14614;DHT22;7393;51.446;6.800;2023-04-03T15:30:03;12.00;1.00
14614;DHT22;7393;51.446;6.800;2023-04-03T15:32:30;11.90;1.00
14614;DHT22;7393;51.446;6.800;2023-04-03T15:34:57;11.90;1.00
14614;DHT22;7393;51.446;6.800;2023-04-03T15:37:25;11.90;1.00
14614;DHT22;7393;51.446;6.800;2023-04-03T15:39:52;11.70;1.00
14614;DHT22;7393;51.446;6.800;2023-04-03T15:42:19;11.60;1.00
14614;DHT22;7393;51.446;6.800;2023-04-03T15:44:46;11.50;1.00
14614;DHT22;7393;51.446;6.800;2023-04-03T15:47:12;11.40;1.00
14614;DHT22;7393;51.446;6.800;2023-04-03T15:49:39;11.40;1.00
14614;DHT22;7393;51.446;6.800;2023-04-03T15:52:06;11.30;1.00
14614;DHT22;7393;51.446;6.800;2023-04-03T15:54:34;11.30;1.00
14614;DHT22;7393;51.446;6.800;2023-04-03T15:57:01;11.30;1.00
14614;DHT22;7393;51.446;6.800;2023-04-03T15:59:28;11.20;1.00
14614;DHT22;7393;51.446;6.800;2023-04-03T16:01:56;11.10;1.00
14614;DHT22;7393;51.446;6.800;2023-04-03T16:04:23;11.20;1.00
14614;DHT22;7393;51.446;6.800;2023-04-03T16:06:50;11.30;1.00
14614;DHT22;7393;51.446;6.800;2023-04-03T16:09:17;11.30;1.00
14614;DHT22;7393;51.446;6.800;2023-04-03T16:11:46;11.20;1.00
14614;DHT22;7393;51.446;6.800;2023-04-03T16:14:12;11.20;1.00
14614;DHT22;7393;51.446;6.800;2023-04-03T16:16:39;11.10;1.00
14614;DHT22;7393;51.446;6.800;2023-04-03T16:19:06;11.10;1.00
14614;DHT22;7393;51.446;6.800;2023-04-03T16:21:33;11.00;1.00
14614;DHT22;7393;51.446;6.800;2023-04-03T16:24:01;11.00;1.00
14614;DHT22;7393;51.446;6.800;2023-04-03T16:26:28;11.10;1.00
14614;DHT22;7393;51.446;6.800;2023-04-03T16:28:56;11.10;1.00